Time;durP1;ratioP1;P1;durP2;ratioP2;P2;SDS_P1;SDS_P2;PMS_P1;PMS_P2;Temp;Humidity;BMP_temperature;BMP_pressure;BME280_temperature;BME280_humidity;BME280_pressure;Samples;Min_cycle;Max_cycle;Signal;HPM_P1;HPM_P2
2022/02/24 00:01:06;;;;;;;0.40;0.25;;;5.50;99.90;;;;;;4902719;29;20056;-94
2022/02/24 00:03:34;;;;;;;1.02;0.28;;;5.40;99.90;;;;;;4897097;29;20120;-94
2022/02/24 00:05:59;;;;;;;0.22;0.10;;;5.20;99.90;;;;;;4882945;29;20044;-94
2022/02/24 00:08:25;;;;;;;0.55;0.47;;;5.20;99.90;;;;;;4882360;29;20024;-92
2022/02/24 00:10:51;;;;;;;0.38;0.25;;;5.10;99.90;;;;;;4881839;29;20040;-91
2022/02/24 00:13:17;;;;;;;0.80;0.20;;;5.00;99.90;;;;;;4882683;29;20025;-92
2022/02/24 00:15:43;;;;;;;1.83;0.30;;;5.00;99.90;;;;;;4882660;29;20029;-94
2022/02/24 00:18:09;;;;;;;2.10;0.30;;;5.00;99.90;;;;;;4893830;29;20462;-92
2022/02/24 00:20:35;;;;;;;0.40;0.30;;;5.00;99.90;;;;;;4893087;29;20093;-93
2022/02/24 00:23:00;;;;;;;1.40;0.50;;;4.90;99.90;;;;;;4890205;29;20025;-93
2022/02/24 00:25:26;;;;;;;5.00;1.25;;;4.90;99.90;;;;;;4892794;29;20041;-93
2022/02/24 00:27:52;;;;;;;2.00;0.93;;;4.90;99.90;;;;;;4892227;29;20387;-92
2022/02/24 00:30:18;;;;;;;2.92;1.20;;;5.00;99.90;;;;;;4889716;29;20079;-92
2022/02/24 00:32:43;;;;;;;1.80;1.00;;;5.00;99.90;;;;;;4892513;29;20028;-91
2022/02/24 00:35:11;;;;;;;2.78;0.98;;;4.90;99.90;;;;;;4891240;29;20160;-91
2022/02/24 00:37:37;;;;;;;3.55;1.15;;;5.00;99.90;;;;;;4889725;29;20603;-93
2022/02/24 00:40:04;;;;;;;7.22;1.23;;;4.90;99.90;;;;;;4889754;29;20029;-91
2022/02/24 00:42:30;;;;;;;3.63;1.05;;;5.00;99.90;;;;;;4891717;29;20052;-91
2022/02/24 00:44:55;;;;;;;6.45;1.13;;;5.00;99.90;;;;;;4892427;29;20048;-91
2022/02/24 00:47:21;;;;;;;4.05;1.23;;;5.00;99.90;;;;;;4900817;29;20028;-91
2022/02/24 00:49:47;;;;;;;4.28;1.40;;;5.00;99.90;;;;;;4900809;29;20039;-91
2022/02/24 00:52:13;;;;;;;4.60;1.13;;;5.10;99.90;;;;;;4900359;29;20024;-92
2022/02/24 00:54:39;;;;;;;4.47;1.00;;;5.10;99.90;;;;;;4900579;29;20172;-92
2022/02/24 00:57:05;;;;;;;5.50;1.17;;;5.10;99.90;;;;;;4900414;29;20044;-91
2022/02/24 00:59:31;;;;;;;3.65;0.90;;;5.10;99.90;;;;;;4899288;29;20028;-93
2022/02/24 01:01:56;;;;;;;14.43;1.33;;;5.10;99.90;;;;;;4900016;29;20127;-91
2022/02/24 01:04:22;;;;;;;6.03;1.10;;;5.10;99.90;;;;;;4900316;29;20036;-91
2022/02/24 01:06:48;;;;;;;11.65;1.70;;;5.10;99.90;;;;;;4900380;29;20032;-91
2022/02/24 01:09:13;;;;;;;9.23;2.03;;;5.10;99.90;;;;;;4899957;29;20028;-92
2022/02/24 01:11:39;;;;;;;6.07;1.40;;;5.10;99.90;;;;;;4899606;29;20055;-91
2022/02/24 01:14:05;;;;;;;5.95;1.20;;;5.10;99.90;;;;;;4899729;29;20084;-91
2022/02/24 01:16:31;;;;;;;6.35;1.35;;;5.10;99.90;;;;;;4900277;29;20036;-92
2022/02/24 01:18:57;;;;;;;6.10;1.05;;;5.10;99.90;;;;;;4903517;29;20028;-91
2022/02/24 01:21:23;;;;;;;5.00;1.20;;;5.10;99.90;;;;;;4916889;29;20028;-91
2022/02/24 01:23:48;;;;;;;7.97;1.50;;;5.10;99.90;;;;;;4917089;29;20048;-91
2022/02/24 01:26:14;;;;;;;9.23;1.80;;;5.10;99.90;;;;;;4911198;29;20028;-91
2022/02/24 01:28:40;;;;;;;11.60;1.45;;;5.10;99.90;;;;;;4911450;29;20052;-92
2022/02/24 01:31:05;;;;;;;8.10;1.55;;;5.10;99.90;;;;;;4907498;29;20092;-92
2022/02/24 01:33:31;;;;;;;5.93;1.30;;;5.10;99.90;;;;;;4906540;29;20024;-91
2022/02/24 01:35:57;;;;;;;8.55;1.60;;;5.10;99.90;;;;;;4902929;29;20124;-93
2022/02/24 01:38:22;;;;;;;5.40;1.38;;;5.10;99.90;;;;;;4899028;29;20025;-92
2022/02/24 01:40:48;;;;;;;11.20;1.50;;;5.10;99.90;;;;;;4899479;29;20081;-91
2022/02/24 01:43:14;;;;;;;9.70;1.55;;;5.10;99.90;;;;;;4899581;29;20111;-90
2022/02/24 01:45:39;;;;;;;6.20;1.00;;;5.10;99.90;;;;;;4899588;29;20036;-92
2022/02/24 01:48:05;;;;;;;9.82;1.63;;;5.10;99.90;;;;;;4899751;29;20032;-92
2022/02/24 01:50:31;;;;;;;7.25;1.25;;;5.10;99.90;;;;;;4899577;29;20125;-90
2022/02/24 01:52:58;;;;;;;9.43;1.75;;;5.10;99.90;;;;;;4899402;29;20021;-90
2022/02/24 01:55:23;;;;;;;8.80;1.38;;;5.10;99.90;;;;;;4899606;29;20110;-90
2022/02/24 01:57:49;;;;;;;5.07;1.40;;;5.00;99.90;;;;;;4899106;29;20060;-90
2022/02/24 02:00:15;;;;;;;6.63;0.90;;;5.00;99.90;;;;;;4899253;29;20100;-90
2022/02/24 02:02:41;;;;;;;10.80;1.20;;;5.00;99.90;;;;;;4899089;29;20028;-91
2022/02/24 02:05:07;;;;;;;8.27;1.38;;;4.90;99.90;;;;;;4899214;29;20051;-90
2022/02/24 02:07:33;;;;;;;9.60;1.05;;;4.90;99.90;;;;;;4898899;29;20039;-91
2022/02/24 02:09:59;;;;;;;5.72;1.20;;;4.90;99.90;;;;;;4898685;29;20111;-90
2022/02/24 02:12:25;;;;;;;8.85;1.17;;;4.90;99.90;;;;;;4897523;29;20020;-91
2022/02/24 02:14:50;;;;;;;5.03;1.27;;;4.90;99.90;;;;;;4898157;29;20124;-90
2022/02/24 02:17:16;;;;;;;9.50;1.40;;;4.80;99.90;;;;;;4898051;29;20024;-90
2022/02/24 02:19:42;;;;;;;11.52;1.95;;;4.80;99.90;;;;;;4897726;29;20439;-88
2022/02/24 02:22:08;;;;;;;15.98;1.98;;;4.80;99.90;;;;;;4897717;29;20037;-90
2022/02/24 02:24:33;;;;;;;6.63;1.63;;;4.80;99.90;;;;;;4897928;29;20175;-90
2022/02/24 02:26:59;;;;;;;7.45;1.73;;;4.80;99.90;;;;;;4898032;29;20043;-89
2022/02/24 02:29:25;;;;;;;15.52;2.38;;;4.80;99.90;;;;;;4897660;29;20035;-90
2022/02/24 02:31:50;;;;;;;6.40;2.92;;;4.80;99.90;;;;;;4897610;29;20037;-91
2022/02/24 02:34:18;;;;;;;9.07;2.45;;;4.80;99.90;;;;;;4897726;29;20443;-91
2022/02/24 02:36:45;;;;;;;10.73;2.47;;;4.80;99.90;;;;;;4898227;29;20033;-91
2022/02/24 02:39:13;;;;;;;9.27;2.00;;;4.80;99.90;;;;;;4897895;29;20024;-91
2022/02/24 02:41:41;;;;;;;12.02;1.80;;;4.80;99.90;;;;;;4897721;29;20396;-89
2022/02/24 02:44:08;;;;;;;12.63;2.72;;;4.80;99.90;;;;;;4897589;29;20037;-92
2022/02/24 02:46:34;;;;;;;7.10;2.72;;;4.90;99.90;;;;;;4898264;29;20021;-92
2022/02/24 02:49:00;;;;;;;8.68;4.10;;;4.80;99.90;;;;;;4898097;29;20035;-91
2022/02/24 02:51:26;;;;;;;6.47;2.10;;;4.80;99.90;;;;;;4898283;29;20025;-91
2022/02/24 02:53:52;;;;;;;5.88;2.55;;;4.80;99.90;;;;;;4898204;29;20143;-91
2022/02/24 02:56:18;;;;;;;9.88;2.10;;;4.80;99.90;;;;;;4898053;29;20029;-91
2022/02/24 02:58:43;;;;;;;11.05;2.38;;;4.80;99.90;;;;;;4897924;29;20033;-91
2022/02/24 03:01:09;;;;;;;7.25;1.60;;;4.80;99.90;;;;;;4897618;29;20067;-91
2022/02/24 03:03:35;;;;;;;4.32;1.83;;;4.80;99.90;;;;;;4897649;29;20028;-91
2022/02/24 03:06:01;;;;;;;4.68;2.53;;;4.80;99.90;;;;;;4897987;29;20033;-91
2022/02/24 03:08:26;;;;;;;9.80;2.58;;;4.80;99.90;;;;;;4898156;29;20123;-91
2022/02/24 03:10:52;;;;;;;5.20;2.80;;;4.80;99.90;;;;;;4897962;29;20135;-91
2022/02/24 03:13:19;;;;;;;6.13;1.90;;;4.80;99.90;;;;;;4898246;29;20363;-91
2022/02/24 03:15:45;;;;;;;8.52;1.70;;;4.80;99.90;;;;;;4898699;29;20040;-91
2022/02/24 03:18:11;;;;;;;2.45;1.38;;;4.80;99.90;;;;;;4898497;29;20478;-91
2022/02/24 03:20:37;;;;;;;4.70;1.40;;;4.80;99.90;;;;;;4898343;29;20032;-90
2022/02/24 03:23:07;;;;;;;3.38;1.50;;;4.80;99.90;;;;;;4900537;29;20025;-91
2022/02/24 03:25:33;;;;;;;12.02;1.60;;;4.80;99.90;;;;;;4901855;29;20044;-91
2022/02/24 03:27:59;;;;;;;4.03;2.08;;;4.80;99.90;;;;;;4901841;29;20044;-90
2022/02/24 03:30:27;;;;;;;3.35;1.00;;;4.80;99.90;;;;;;4902893;29;20028;-90
2022/02/24 03:32:53;;;;;;;5.05;1.30;;;4.80;99.90;;;;;;4901606;29;20035;-90
2022/02/24 03:35:19;;;;;;;6.63;1.38;;;4.80;99.90;;;;;;4902694;29;20027;-90
2022/02/24 03:37:45;;;;;;;3.20;0.90;;;4.80;99.90;;;;;;4902065;29;20025;-90
2022/02/24 03:40:12;;;;;;;6.13;0.98;;;4.80;99.90;;;;;;4901664;29;20587;-89
2022/02/24 03:42:38;;;;;;;8.48;1.40;;;4.80;99.90;;;;;;4902276;29;20036;-90
2022/02/24 03:45:04;;;;;;;11.60;2.15;;;4.80;99.90;;;;;;4901218;29;20065;-90
2022/02/24 03:47:30;;;;;;;5.80;1.20;;;4.80;99.90;;;;;;4901186;29;20088;-90
2022/02/24 03:49:56;;;;;;;3.80;0.70;;;4.80;99.90;;;;;;4901503;29;20040;-90
2022/02/24 03:52:21;;;;;;;3.45;0.80;;;4.80;99.90;;;;;;4901569;29;20060;-91
2022/02/24 03:54:48;;;;;;;6.75;1.00;;;4.80;99.90;;;;;;4901602;29;20080;-90
2022/02/24 03:57:14;;;;;;;4.18;0.80;;;4.80;99.90;;;;;;4901315;29;20356;-89
2022/02/24 03:59:41;;;;;;;7.80;0.80;;;4.80;99.90;;;;;;4900843;29;20057;-90
2022/02/24 04:02:07;;;;;;;4.97;0.73;;;4.80;99.90;;;;;;4901445;29;20075;-90
2022/02/24 04:04:34;;;;;;;2.42;0.95;;;4.80;99.90;;;;;;4901465;29;20522;-90
2022/02/24 04:07:01;;;;;;;3.42;0.70;;;4.80;99.90;;;;;;4901532;29;20043;-90
2022/02/24 04:09:26;;;;;;;4.28;0.88;;;4.80;99.90;;;;;;4901358;29;20123;-90
2022/02/24 04:11:53;;;;;;;6.00;0.90;;;4.80;99.90;;;;;;4901158;29;20507;-89
2022/02/24 04:14:18;;;;;;;6.78;1.00;;;4.70;99.90;;;;;;4900975;29;20124;-90
2022/02/24 04:16:44;;;;;;;8.57;0.98;;;4.70;99.90;;;;;;4900586;29;20119;-90
2022/02/24 04:19:10;;;;;;;2.42;0.68;;;4.70;99.90;;;;;;4901143;29;20040;-89
2022/02/24 04:21:35;;;;;;;6.22;0.90;;;4.70;99.90;;;;;;4901120;29;20539;-90
2022/02/24 04:24:02;;;;;;;7.03;0.80;;;4.70;99.90;;;;;;4901302;29;20444;-89
2022/02/24 04:26:28;;;;;;;3.97;0.88;;;4.60;99.90;;;;;;4900862;29;20025;-90
2022/02/24 04:28:54;;;;;;;2.67;0.60;;;4.70;99.90;;;;;;4900966;29;20123;-90
2022/02/24 04:31:20;;;;;;;4.00;0.47;;;4.60;99.90;;;;;;4900801;29;20056;-89
2022/02/24 04:33:45;;;;;;;6.28;0.85;;;4.60;99.90;;;;;;4900503;29;20036;-90
2022/02/24 04:36:11;;;;;;;3.40;0.73;;;4.60;99.90;;;;;;4901188;29;20632;-90
2022/02/24 04:38:37;;;;;;;3.03;0.88;;;4.60;99.90;;;;;;4900984;29;20029;-90
2022/02/24 04:41:03;;;;;;;5.03;0.90;;;4.60;99.90;;;;;;4900882;29;20060;-90
2022/02/24 04:43:29;;;;;;;9.50;2.20;;;4.50;99.90;;;;;;4900826;29;20024;-89
2022/02/24 04:45:55;;;;;;;7.55;1.08;;;4.50;99.90;;;;;;4900951;29;20043;-90
2022/02/24 04:48:21;;;;;;;3.60;0.98;;;4.40;99.90;;;;;;4900972;29;20033;-90
2022/02/24 04:50:47;;;;;;;3.85;0.90;;;4.40;99.90;;;;;;4900520;29;20530;-90
2022/02/24 04:53:13;;;;;;;9.15;0.93;;;4.30;99.90;;;;;;4903433;29;20100;-89
2022/02/24 04:55:39;;;;;;;6.93;1.00;;;4.30;99.90;;;;;;4902405;29;20085;-90
2022/02/24 04:58:05;;;;;;;4.55;1.08;;;4.30;99.90;;;;;;4910989;29;20032;-89
2022/02/24 05:00:31;;;;;;;7.32;1.30;;;4.30;99.90;;;;;;4909473;29;20041;-90
2022/02/24 05:02:57;;;;;;;6.13;1.02;;;4.30;99.90;;;;;;4911361;29;20145;-90
2022/02/24 05:05:22;;;;;;;8.65;0.75;;;4.20;99.90;;;;;;4911070;29;20047;-90
2022/02/24 05:07:48;;;;;;;4.20;0.82;;;4.20;99.90;;;;;;4911043;29;20032;-90
2022/02/24 05:10:14;;;;;;;5.95;0.98;;;4.20;99.90;;;;;;4907458;29;20031;-90
2022/02/24 05:12:40;;;;;;;5.90;1.05;;;4.20;99.90;;;;;;4905937;29;20105;-90
2022/02/24 05:15:07;;;;;;;6.68;0.98;;;4.20;99.90;;;;;;4899303;29;20032;-90
2022/02/24 05:17:33;;;;;;;6.80;1.20;;;4.10;99.90;;;;;;4899686;29;20052;-90
2022/02/24 05:20:00;;;;;;;4.45;0.75;;;4.10;99.90;;;;;;4900560;29;20039;-89
2022/02/24 05:22:27;;;;;;;5.15;0.90;;;4.10;99.90;;;;;;4900923;29;20033;-90
2022/02/24 05:24:54;;;;;;;5.70;1.30;;;4.10;99.90;;;;;;4900395;29;20065;-90
2022/02/24 05:27:20;;;;;;;5.50;0.98;;;4.10;99.90;;;;;;4900725;29;20489;-90
2022/02/24 05:29:46;;;;;;;3.40;0.82;;;4.20;99.90;;;;;;4900426;29;20035;-90
2022/02/24 05:32:12;;;;;;;6.97;1.00;;;4.10;99.90;;;;;;4900792;29;20398;-91
2022/02/24 05:34:38;;;;;;;11.30;1.17;;;4.10;99.90;;;;;;4899893;29;20045;-90
2022/02/24 05:37:04;;;;;;;10.32;1.20;;;4.10;99.90;;;;;;4900020;29;20092;-90
2022/02/24 05:39:29;;;;;;;8.07;1.15;;;4.10;99.90;;;;;;4900345;29;20041;-90
2022/02/24 05:41:55;;;;;;;7.18;1.20;;;4.10;99.90;;;;;;4900858;29;20505;-90
2022/02/24 05:44:21;;;;;;;4.65;0.90;;;4.10;99.90;;;;;;4902395;29;20477;-89
2022/02/24 05:46:46;;;;;;;4.40;0.85;;;4.10;99.90;;;;;;4901009;29;20286;-90
2022/02/24 05:49:15;;;;;;;4.00;0.80;;;4.00;99.90;;;;;;4900485;29;20047;-90
2022/02/24 05:51:41;;;;;;;7.78;1.10;;;3.90;99.90;;;;;;4901600;29;20052;-91
2022/02/24 05:54:07;;;;;;;2.83;0.63;;;3.90;99.90;;;;;;4899913;29;20032;-91
2022/02/24 05:56:33;;;;;;;2.70;0.77;;;3.90;99.90;;;;;;4902530;29;20032;-91
2022/02/24 05:58:58;;;;;;;5.97;0.88;;;3.80;99.90;;;;;;4898943;29;20035;-91
2022/02/24 06:01:24;;;;;;;5.53;0.90;;;3.80;99.90;;;;;;4899096;29;20053;-91
2022/02/24 06:03:50;;;;;;;5.40;0.63;;;3.70;99.90;;;;;;4899093;29;20039;-91
2022/02/24 06:06:15;;;;;;;7.10;0.82;;;3.70;99.90;;;;;;4898915;29;20039;-91
2022/02/24 06:08:41;;;;;;;4.72;0.82;;;3.70;99.90;;;;;;4898835;29;20035;-91
2022/02/24 06:11:07;;;;;;;3.90;0.70;;;3.60;99.90;;;;;;4898741;29;20123;-91
2022/02/24 06:13:32;;;;;;;9.02;0.90;;;3.60;99.90;;;;;;4898908;29;20470;-91
2022/02/24 06:16:00;;;;;;;6.93;0.75;;;3.60;99.90;;;;;;4898903;29;20043;-91
2022/02/24 06:18:25;;;;;;;10.30;0.95;;;3.60;99.90;;;;;;4898883;29;20611;-91
2022/02/24 06:20:51;;;;;;;3.63;0.60;;;3.60;99.90;;;;;;4898584;29;20042;-90
2022/02/24 06:23:17;;;;;;;4.25;0.57;;;3.60;99.90;;;;;;4898133;29;20075;-91
2022/02/24 06:25:42;;;;;;;5.50;0.70;;;3.60;99.90;;;;;;4898617;29;20029;-91
2022/02/24 06:28:08;;;;;;;3.13;0.77;;;3.50;99.90;;;;;;4898207;29;20024;-91
2022/02/24 06:30:34;;;;;;;5.72;0.70;;;3.50;99.90;;;;;;4898114;29;20052;-91
2022/02/24 06:33:00;;;;;;;3.83;0.80;;;3.50;99.90;;;;;;4898272;29;20031;-90
2022/02/24 06:35:26;;;;;;;3.40;0.77;;;3.50;99.90;;;;;;4898083;29;20033;-91
2022/02/24 06:37:52;;;;;;;11.25;1.77;;;3.50;99.90;;;;;;4897871;29;20028;-90
2022/02/24 06:40:17;;;;;;;5.07;1.10;;;3.50;99.90;;;;;;4897671;29;20080;-90
2022/02/24 06:42:43;;;;;;;8.40;1.08;;;3.40;99.90;;;;;;4897441;29;20032;-91
2022/02/24 06:45:09;;;;;;;11.93;1.10;;;3.40;99.90;;;;;;4897755;29;20095;-90
2022/02/24 06:47:35;;;;;;;3.35;0.60;;;3.40;99.90;;;;;;4898042;29;20033;-90
2022/02/24 06:50:02;;;;;;;1.70;0.90;;;3.40;99.90;;;;;;4897575;29;20379;-90
2022/02/24 06:52:28;;;;;;;3.80;0.90;;;3.40;99.90;;;;;;4897864;29;20029;-90
2022/02/24 06:54:55;;;;;;;6.18;1.15;;;3.30;99.90;;;;;;4897644;29;20032;-91
2022/02/24 06:57:21;;;;;;;5.50;1.27;;;3.30;99.90;;;;;;4897281;29;20047;-91
2022/02/24 06:59:46;;;;;;;6.30;1.20;;;3.30;99.90;;;;;;4897389;29;20546;-91
2022/02/24 07:02:12;;;;;;;5.53;1.70;;;3.30;99.90;;;;;;4897714;29;20049;-90
2022/02/24 07:04:38;;;;;;;6.88;1.35;;;3.20;99.90;;;;;;4897492;29;20044;-91
2022/02/24 07:07:04;;;;;;;4.20;1.35;;;3.20;99.90;;;;;;4897623;29;20443;-92
2022/02/24 07:09:31;;;;;;;9.70;1.92;;;3.20;99.90;;;;;;4897452;29;20035;-91
2022/02/24 07:11:57;;;;;;;6.00;1.30;;;3.10;99.90;;;;;;4897411;29;20025;-91
2022/02/24 07:14:22;;;;;;;6.20;1.30;;;3.00;99.90;;;;;;4897352;29;20040;-91
2022/02/24 07:16:48;;;;;;;6.63;3.15;;;3.00;99.90;;;;;;4897821;29;20029;-91
2022/02/24 07:19:14;;;;;;;3.25;1.30;;;3.00;99.90;;;;;;4898069;29;20040;-91
2022/02/24 07:21:40;;;;;;;7.88;1.45;;;2.80;99.90;;;;;;4897401;29;20021;-91
2022/02/24 07:24:06;;;;;;;5.68;1.45;;;2.80;99.90;;;;;;4897246;29;20085;-91
2022/02/24 07:26:33;;;;;;;5.97;1.73;;;2.80;99.90;;;;;;4897539;29;20032;-90
2022/02/24 07:28:58;;;;;;;12.60;2.35;;;2.80;99.90;;;;;;4897603;29;20021;-92
2022/02/24 07:31:24;;;;;;;5.22;1.70;;;2.80;99.90;;;;;;4898414;29;20107;-91
2022/02/24 07:33:50;;;;;;;6.10;1.77;;;2.80;99.90;;;;;;4897290;29;20037;-91
2022/02/24 07:36:16;;;;;;;3.17;1.92;;;2.80;99.90;;;;;;4897125;29;20479;-91
2022/02/24 07:38:42;;;;;;;6.45;1.75;;;2.80;99.90;;;;;;4897071;29;20050;-91
2022/02/24 07:41:08;;;;;;;7.95;2.38;;;2.80;99.90;;;;;;4897375;29;20033;-91
2022/02/24 07:43:34;;;;;;;6.30;3.20;;;2.80;99.90;;;;;;4897132;29;20478;-90
2022/02/24 07:45:59;;;;;;;5.65;2.15;;;2.80;99.90;;;;;;4897068;29;20119;-91
2022/02/24 07:48:27;;;;;;;7.20;3.28;;;2.90;99.90;;;;;;4897676;29;20029;-91
2022/02/24 07:50:52;;;;;;;4.43;2.75;;;2.90;99.90;;;;;;4897444;29;20037;-91
2022/02/24 07:53:18;;;;;;;6.70;3.17;;;2.90;99.90;;;;;;4896886;29;20142;-91
2022/02/24 07:55:44;;;;;;;8.25;3.00;;;2.90;99.90;;;;;;4897046;29;20051;-91
2022/02/24 07:58:10;;;;;;;3.17;2.05;;;2.90;99.90;;;;;;4897595;29;20033;-90
2022/02/24 08:00:36;;;;;;;4.85;2.63;;;3.00;99.90;;;;;;4897841;29;20530;-91
2022/02/24 08:03:02;;;;;;;6.18;2.03;;;3.00;99.90;;;;;;4897218;29;20506;-90
2022/02/24 08:05:28;;;;;;;4.78;2.35;;;3.00;99.90;;;;;;4897146;29;20048;-92
2022/02/24 08:07:54;;;;;;;3.65;1.70;;;3.00;99.90;;;;;;4897090;29;20080;-91
2022/02/24 08:10:20;;;;;;;1.70;1.60;;;3.00;99.90;;;;;;4905445;29;20024;-89
2022/02/24 08:12:47;;;;;;;7.65;1.30;;;3.00;99.90;;;;;;4899948;29;20066;-92
2022/02/24 08:15:16;;;;;;;4.53;1.42;;;3.00;99.90;;;;;;4900563;29;20036;-92
2022/02/24 08:17:42;;;;;;;5.78;1.85;;;3.00;99.90;;;;;;4900447;29;20048;-92
2022/02/24 08:20:09;;;;;;;2.72;1.40;;;3.00;99.90;;;;;;4900139;29;20029;-92
2022/02/24 08:22:36;;;;;;;4.82;1.40;;;3.00;99.90;;;;;;4899900;29;20071;-92
2022/02/24 08:25:04;;;;;;;2.03;1.23;;;3.00;99.90;;;;;;4900619;29;20033;-92
2022/02/24 08:27:30;;;;;;;3.42;1.27;;;3.00;99.90;;;;;;4901332;29;20037;-93
2022/02/24 08:29:57;;;;;;;1.98;1.45;;;3.00;99.90;;;;;;4901039;29;20091;-92
2022/02/24 08:32:24;;;;;;;2.70;1.50;;;3.00;99.90;;;;;;4887071;29;20032;-91
2022/02/24 08:34:50;;;;;;;6.78;3.22;;;3.10;99.90;;;;;;4885952;29;20033;-92
2022/02/24 08:37:16;;;;;;;3.58;1.25;;;3.10;99.90;;;;;;4897801;29;20028;-92
2022/02/24 08:39:41;;;;;;;4.53;1.60;;;3.10;99.90;;;;;;4911665;29;20047;-91
2022/02/24 08:42:07;;;;;;;2.72;0.95;;;3.10;99.90;;;;;;4911463;29;20028;-91
2022/02/24 08:44:33;;;;;;;2.97;1.08;;;3.10;99.90;;;;;;4908381;29;20044;-91
2022/02/24 08:46:58;;;;;;;8.75;1.08;;;3.20;99.90;;;;;;4907017;29;20044;-91
2022/02/24 08:49:24;;;;;;;3.25;1.08;;;3.20;99.90;;;;;;4900001;29;20072;-89
2022/02/24 08:51:50;;;;;;;5.68;1.20;;;3.20;99.90;;;;;;4893254;29;20035;-91
2022/02/24 08:54:15;;;;;;;5.60;0.90;;;3.20;99.90;;;;;;4890041;29;20039;-92
2022/02/24 08:56:42;;;;;;;5.60;0.70;;;3.20;99.90;;;;;;4889350;29;20025;-91
2022/02/24 08:59:08;;;;;;;4.63;0.95;;;3.20;99.90;;;;;;4888877;29;20092;-92
2022/02/24 09:01:34;;;;;;;3.83;0.88;;;3.20;99.90;;;;;;4891236;29;20078;-92
2022/02/24 09:04:00;;;;;;;4.93;1.00;;;3.30;99.90;;;;;;4889191;29;20029;-91
2022/02/24 09:06:25;;;;;;;4.40;1.30;;;3.30;99.90;;;;;;4891510;29;20025;-92
2022/02/24 09:08:51;;;;;;;4.57;0.75;;;3.30;99.90;;;;;;4889379;29;20021;-92
2022/02/24 09:11:17;;;;;;;7.07;1.55;;;3.30;99.90;;;;;;4890527;29;20116;-91
2022/02/24 09:13:44;;;;;;;5.15;2.08;;;3.40;99.90;;;;;;4887772;29;20027;-91
2022/02/24 09:16:10;;;;;;;4.13;1.17;;;3.40;99.90;;;;;;4890912;29;20047;-91
2022/02/24 09:18:36;;;;;;;4.15;1.10;;;3.40;99.90;;;;;;4889699;29;20022;-92
2022/02/24 09:21:02;;;;;;;1.65;0.70;;;3.50;99.90;;;;;;4888427;29;20089;-91
2022/02/24 09:23:27;;;;;;;4.97;1.25;;;3.50;99.90;;;;;;4892330;29;20025;-90
2022/02/24 09:25:53;;;;;;;6.50;1.08;;;3.50;99.90;;;;;;4905556;29;20036;-91
2022/02/24 09:28:19;;;;;;;3.83;2.40;;;3.60;99.90;;;;;;4906945;29;20015;-92
2022/02/24 09:30:45;;;;;;;8.48;1.45;;;3.70;99.90;;;;;;4901746;29;20024;-92
2022/02/24 09:33:10;;;;;;;5.88;1.15;;;3.80;99.90;;;;;;4893503;29;20028;-90
2022/02/24 09:35:38;;;;;;;7.63;1.83;;;3.80;99.90;;;;;;4890584;29;20037;-90
2022/02/24 09:38:04;;;;;;;6.07;1.25;;;3.90;99.90;;;;;;4893144;29;20478;-91
2022/02/24 09:40:31;;;;;;;4.07;1.10;;;4.00;99.90;;;;;;4892545;29;20043;-93
2022/02/24 09:42:57;;;;;;;1.85;0.90;;;4.10;99.90;;;;;;4901456;29;20080;-93
2022/02/24 09:45:47;;;;;;;2.83;0.73;;;4.20;99.90;;;;;;4921255;29;20032;-95
2022/02/24 09:48:27;;;;;;;4.72;1.42;;;4.30;99.90;;;;;;4916614;29;20109;-96
2022/02/24 09:51:02;;;;;;;5.95;1.33;;;4.40;99.90;;;;;;4921843;29;20029;-93
2022/02/24 09:53:34;;;;;;;6.90;1.38;;;4.50;99.90;;;;;;4920603;29;20036;-95
2022/02/24 09:56:02;;;;;;;10.10;1.42;;;4.70;99.90;;;;;;4921726;29;20032;-95
2022/02/24 09:58:34;;;;;;;3.60;1.02;;;4.80;99.90;;;;;;4922676;29;20029;-93
2022/02/24 10:01:06;;;;;;;6.13;1.50;;;5.00;99.90;;;;;;4920255;29;20063;-95
2022/02/24 10:03:57;;;;;;;10.25;1.27;;;5.20;99.90;;;;;;4920667;29;20175;-96
2022/02/24 10:07:03;;;;;;;6.55;0.88;;;5.50;99.90;;;;;;4920513;29;20044;-94
2022/02/24 10:09:41;;;;;;;4.35;1.17;;;5.70;99.90;;;;;;4920460;29;20081;-95
2022/02/24 10:12:12;;;;;;;9.52;1.42;;;5.90;99.90;;;;;;4918309;29;20064;-94
2022/02/24 10:14:47;;;;;;;6.30;1.40;;;6.10;99.90;;;;;;4920712;29;20025;-94
2022/02/24 10:17:35;;;;;;;6.38;1.02;;;6.20;99.90;;;;;;4919841;29;20016;-94
2022/02/24 10:20:16;;;;;;;5.88;2.20;;;6.30;99.90;;;;;;4894314;29;20016;-92
2022/02/24 10:26:23;;;;;;;3.75;1.00;;;6.70;99.90;;;;;;4922796;29;20028;-95
2022/02/24 10:29:10;;;;;;;4.53;1.40;;;6.90;99.90;;;;;;4921897;29;20029;-92
2022/02/24 10:38:22;;;;;;;3.40;1.60;;;7.40;99.90;;;;;;4893531;29;20029;-93
2022/02/24 10:41:14;;;;;;;4.40;1.20;;;7.30;99.90;;;;;;4922336;29;20012;-93
2022/02/24 10:44:24;;;;;;;3.35;1.85;;;6.90;98.90;;;;;;4921702;29;20044;-94
2022/02/24 10:47:35;;;;;;;4.03;1.52;;;6.20;99.60;;;;;;4922421;29;20009;-95
2022/02/24 10:51:03;;;;;;;;;;;;;;;;;;;;;
2022/02/24 11:00:44;;;;;;;;;;;;;;;;;;;;;
2022/02/24 11:14:45;;;;;;;2.53;0.75;;;5.50;99.90;;;;;;5323420;23;20030;-95
2022/02/24 11:18:05;;;;;;;2.05;0.93;;;5.20;99.90;;;;;;4941645;29;20032;-95
2022/02/24 11:21:11;;;;;;;1.02;0.55;;;4.80;99.90;;;;;;4851796;29;20033;-94
2022/02/24 11:24:05;;;;;;;1.45;0.38;;;4.40;99.90;;;;;;4858020;29;20018;-96
2022/02/24 11:38:40;;;;;;;4.07;0.65;;;2.90;99.90;;;;;;4930476;23;20035;-94
2022/02/24 11:41:31;;;;;;;1.17;0.63;;;2.80;99.90;;;;;;4922335;29;20089;-95
2022/02/24 11:44:32;;;;;;;5.93;0.88;;;2.80;99.90;;;;;;4923974;29;20047;-95
2022/02/24 11:51:36;;;;;;;4.35;0.80;;;2.80;99.90;;;;;;4925811;29;20132;-95
2022/02/24 11:54:29;;;;;;;3.40;0.80;;;2.70;99.90;;;;;;4927597;29;20024;-96
2022/02/24 11:57:32;;;;;;;2.03;0.70;;;2.60;99.90;;;;;;4925622;29;20116;-95
2022/02/24 12:00:24;;;;;;;5.28;1.00;;;2.60;99.90;;;;;;4906692;29;20017;-96
2022/02/24 12:03:31;;;;;;;6.10;1.00;;;2.50;99.90;;;;;;4904396;29;20040;-94
2022/02/24 12:06:49;;;;;;;2.22;0.90;;;2.50;99.90;;;;;;4906299;29;20093;-95
2022/02/24 12:09:38;;;;;;;4.43;0.85;;;2.60;99.90;;;;;;4906414;29;20039;-94
2022/02/24 12:12:35;;;;;;;2.38;0.70;;;2.70;99.90;;;;;;5195397;23;20041;-95
2022/02/24 12:15:39;;;;;;;2.58;0.68;;;2.80;99.90;;;;;;4926179;29;20005;-94
2022/02/24 12:22:02;;;;;;;4.82;0.95;;;3.00;99.90;;;;;;4925617;29;20024;-95
2022/02/24 12:25:43;;;;;;;4.60;1.13;;;3.20;99.90;;;;;;4925093;29;20049;-95
2022/02/24 12:29:26;;;;;;;5.38;1.08;;;3.20;99.90;;;;;;4906339;29;20040;-93
2022/02/24 12:32:28;;;;;;;3.85;0.75;;;3.30;99.90;;;;;;4907483;29;20028;-95
2022/02/24 12:35:34;;;;;;;3.45;0.60;;;3.30;99.90;;;;;;4923527;29;20028;-95
2022/02/24 12:38:41;;;;;;;6.68;0.85;;;3.00;99.90;;;;;;4916240;29;20077;-92
2022/02/24 12:41:10;;;;;;;4.00;1.58;;;2.80;99.90;;;;;;4924502;29;20021;-93
2022/02/24 12:43:36;;;;;;;7.03;1.38;;;2.80;99.90;;;;;;4900177;29;20041;-89
2022/02/24 12:46:02;;;;;;;3.67;1.30;;;3.20;99.90;;;;;;4899709;29;20491;-91
2022/02/24 12:48:32;;;;;;;8.68;1.70;;;3.70;99.90;;;;;;4899796;29;20120;-90
2022/02/24 12:50:58;;;;;;;3.63;0.73;;;4.30;99.90;;;;;;4898720;29;20494;-90
2022/02/24 12:53:27;;;;;;;6.05;1.42;;;4.90;99.90;;;;;;4893530;29;20041;-90
2022/02/24 12:55:55;;;;;;;8.77;1.08;;;5.60;99.90;;;;;;4890202;29;20108;-90
2022/02/24 12:58:22;;;;;;;7.90;1.50;;;6.10;99.90;;;;;;4884171;29;20041;-90
2022/02/24 13:00:53;;;;;;;11.77;2.13;;;6.70;99.90;;;;;;4872618;29;20079;-87
2022/02/24 13:03:20;;;;;;;6.32;0.90;;;7.20;99.90;;;;;;4879315;29;20044;-89
2022/02/24 13:05:48;;;;;;;6.43;1.05;;;7.70;99.90;;;;;;4880790;29;20041;-89
2022/02/24 13:11:07;;;;;;;4.18;0.98;;;7.70;98.90;;;;;;4871247;29;20044;-89
2022/02/24 13:13:35;;;;;;;3.03;0.70;;;7.10;96.00;;;;;;4872067;29;20139;-89
2022/02/24 13:16:09;;;;;;;2.13;0.75;;;6.50;96.20;;;;;;4871726;29;20495;-91
2022/02/24 13:18:45;;;;;;;2.85;0.68;;;5.90;97.40;;;;;;4869334;29;20513;-89
2022/02/24 13:21:11;;;;;;;5.15;0.80;;;5.50;99.10;;;;;;4872847;29;20091;-90
2022/02/24 13:23:38;;;;;;;5.25;0.82;;;5.20;99.90;;;;;;4872596;29;20022;-91
2022/02/24 13:26:06;;;;;;;5.25;1.08;;;5.00;99.90;;;;;;4872680;29;20025;-90
2022/02/24 13:28:34;;;;;;;1.35;0.38;;;4.70;99.90;;;;;;4874526;29;20051;-90
2022/02/24 13:31:02;;;;;;;5.78;0.80;;;4.40;99.90;;;;;;4863185;29;20056;-90
2022/02/24 13:33:30;;;;;;;6.88;1.00;;;4.10;99.90;;;;;;4878800;29;20063;-90
2022/02/24 13:35:56;;;;;;;0.88;0.55;;;3.80;99.90;;;;;;4862399;29;20086;-91
2022/02/24 13:38:35;;;;;;;4.65;0.88;;;3.50;99.90;;;;;;4863200;29;20041;-89
2022/02/24 13:41:01;;;;;;;2.53;1.30;;;3.10;99.90;;;;;;4868024;29;20048;-89
2022/02/24 13:43:27;;;;;;;3.38;0.80;;;2.90;99.90;;;;;;4872195;29;20028;-89
2022/02/24 13:45:54;;;;;;;6.70;0.90;;;2.90;99.90;;;;;;4877347;29;20043;-90
2022/02/24 13:48:25;;;;;;;4.68;1.40;;;2.80;99.90;;;;;;4874569;29;20033;-90
2022/02/24 13:50:52;;;;;;;3.70;0.90;;;2.80;99.90;;;;;;4871997;29;20502;-90
2022/02/24 13:53:26;;;;;;;8.90;1.48;;;2.90;99.90;;;;;;4874178;29;20136;-90
2022/02/24 13:55:59;;;;;;;10.85;1.73;;;3.10;99.90;;;;;;4893870;29;20021;-88
2022/02/24 13:58:30;;;;;;;4.65;1.23;;;3.30;99.90;;;;;;4869630;29;20029;-90
2022/02/24 14:00:58;;;;;;;7.18;0.60;;;3.40;99.90;;;;;;4871505;29;20025;-89
2022/02/24 14:03:51;;;;;;;1.98;0.80;;;3.30;99.90;;;;;;4871573;29;20529;-90